createdAt,value
2018-08-11T00:02:02.208Z,20.26
2018-08-11T00:04:32.916Z,20.23
2018-08-11T00:07:03.145Z,20.30
2018-08-11T00:09:34.635Z,20.38
2018-08-11T00:12:04.781Z,20.58
2018-08-11T00:14:35.246Z,20.70
2018-08-11T00:17:06.149Z,20.75
2018-08-11T00:19:36.602Z,20.79
2018-08-11T00:22:07.276Z,20.56
2018-08-11T00:24:37.921Z,20.65
2018-08-11T00:27:08.392Z,20.67
2018-08-11T00:29:38.772Z,20.46
2018-08-11T00:32:10.083Z,20.30
2018-08-11T00:34:41.100Z,20.24
2018-08-11T00:37:12.128Z,20.10
2018-08-11T00:39:42.098Z,20.09
2018-08-11T00:42:12.837Z,20.09
2018-08-11T00:44:44.599Z,20.27
2018-08-11T00:47:15.509Z,20.13
2018-08-11T00:49:46.309Z,20.03
2018-08-11T00:52:17.003Z,20.29
2018-08-11T00:54:47.394Z,20.43
2018-08-11T00:57:18.134Z,20.42
2018-08-11T00:59:48.671Z,20.35
2018-08-11T01:02:19.311Z,20.26
2018-08-11T01:04:49.870Z,20.31
2018-08-11T01:07:20.930Z,20.27
2018-08-11T01:09:50.955Z,20.34
2018-08-11T01:12:22.011Z,20.35
2018-08-11T01:14:52.903Z,19.96
2018-08-11T01:17:23.624Z,19.96
2018-08-11T01:19:54.033Z,20.25
2018-08-11T01:22:24.859Z,20.33
2018-08-11T01:24:54.906Z,20.29
2018-08-11T01:27:26.478Z,20.27
2018-08-11T01:29:57.950Z,20.18
2018-08-11T01:32:28.723Z,20.16
2018-08-11T01:34:59.488Z,20.32
2018-08-11T01:37:31.094Z,20.19
2018-08-11T01:40:01.511Z,20.02
2018-08-11T01:42:31.824Z,19.85
2018-08-11T01:45:02.502Z,20.11
2018-08-11T01:47:34.150Z,20.26
2018-08-11T01:50:06.147Z,20.30
2018-08-11T01:52:37.997Z,20.49
2018-08-11T01:55:08.923Z,20.49
2018-08-11T01:57:39.592Z,20.40
2018-08-11T02:00:12.227Z,20.35
2018-08-11T02:02:43.200Z,20.43
2018-08-11T02:05:14.385Z,20.47
2018-08-11T02:07:45.395Z,20.19
2018-08-11T02:10:17.330Z,20.28
2018-08-11T02:12:48.494Z,20.26
2018-08-11T02:15:19.064Z,20.26
2018-08-11T02:17:50.054Z,20.23
2018-08-11T02:20:20.879Z,20.16
2018-08-11T02:22:51.497Z,20.23
2018-08-11T02:25:22.128Z,20.26
2018-08-11T02:27:53.007Z,20.20
2018-08-11T02:30:23.665Z,19.95
2018-08-11T02:32:54.461Z,19.77
2018-08-11T02:35:25.568Z,19.71
2018-08-11T02:37:56.261Z,19.54
2018-08-11T02:40:27.232Z,19.28
2018-08-11T02:42:58.164Z,19.28
2018-08-11T02:45:29.573Z,19.37
2018-08-11T02:48:00.271Z,19.53
2018-08-11T02:50:30.866Z,19.60
2018-08-11T02:53:01.481Z,19.65
2018-08-11T02:55:32.544Z,19.48
2018-08-11T02:58:03.512Z,18.84
2018-08-11T03:00:33.492Z,18.72
2018-08-11T03:03:04.389Z,18.50
2018-08-11T03:05:34.362Z,18.52
2018-08-11T03:08:05.106Z,18.53
2018-08-11T03:10:35.852Z,18.47
2018-08-11T03:13:06.525Z,18.58
2018-08-11T03:15:37.060Z,18.63
2018-08-11T03:18:08.074Z,18.76
2018-08-11T03:20:38.955Z,18.76
2018-08-11T03:23:10.565Z,18.70
2018-08-11T03:25:41.204Z,18.67
2018-08-11T03:28:12.788Z,18.79
2018-08-11T03:30:43.463Z,18.81
2018-08-11T03:33:13.819Z,18.84
2018-08-11T03:35:44.819Z,18.81
2018-08-11T03:38:15.633Z,18.98
2018-08-11T03:40:45.729Z,18.97
2018-08-11T03:43:16.703Z,18.90
2018-08-11T03:45:46.530Z,18.96
2018-08-11T03:48:17.122Z,19.09
2018-08-11T03:50:47.969Z,19.24
2018-08-11T03:53:18.261Z,19.26
2018-08-11T03:55:48.914Z,19.15
2018-08-11T03:58:19.599Z,19.00
2018-08-11T04:00:50.168Z,18.92
2018-08-11T04:03:21.037Z,18.89
2018-08-11T04:05:51.745Z,19.13
2018-08-11T04:08:22.450Z,19.17
2018-08-11T04:10:53.512Z,19.10
2018-08-11T04:13:24.877Z,19.15
2018-08-11T04:15:54.635Z,19.07
2018-08-11T04:18:24.510Z,19.17
2018-08-11T04:20:54.389Z,19.31
2018-08-11T04:23:24.297Z,19.26
2018-08-11T04:25:54.218Z,19.31
2018-08-11T04:28:24.169Z,19.39
2018-08-11T04:30:54.062Z,19.60
2018-08-11T04:33:24.031Z,19.84
2018-08-11T04:35:53.800Z,20.14
2018-08-11T04:38:24.545Z,20.37
2018-08-11T04:40:55.142Z,20.66
2018-08-11T04:43:25.858Z,21.04
2018-08-11T04:45:56.484Z,21.31
2018-08-11T04:48:27.195Z,21.53
2018-08-11T04:50:57.675Z,21.56
2018-08-11T04:53:28.469Z,21.62
2018-08-11T04:55:59.475Z,21.79
2018-08-11T04:58:30.153Z,22.00
2018-08-11T05:01:00.969Z,22.14
2018-08-11T05:03:31.671Z,22.46
2018-08-11T05:06:02.574Z,22.59
2018-08-11T05:08:33.207Z,22.62
2018-08-11T05:11:04.043Z,22.68
2018-08-11T05:13:34.738Z,22.87
2018-08-11T05:16:05.358Z,22.90
2018-08-11T05:18:35.462Z,23.29
2018-08-11T05:21:05.994Z,23.49
2018-08-11T05:23:36.940Z,23.45
2018-08-11T05:26:08.440Z,23.51
2018-08-11T05:28:39.282Z,23.64
2018-08-11T05:31:09.668Z,23.79
2018-08-11T05:33:40.186Z,23.82
2018-08-11T05:36:10.864Z,23.78
2018-08-11T05:38:41.914Z,23.73
2018-08-11T05:41:12.704Z,23.92
2018-08-11T05:43:42.881Z,23.98
2018-08-11T05:46:13.642Z,24.15
2018-08-11T05:48:43.652Z,24.24
2018-08-11T05:51:14.312Z,24.30
2018-08-11T05:53:44.997Z,24.39
2018-08-11T05:56:15.445Z,24.39
2018-08-11T05:58:45.990Z,24.76
2018-08-11T06:01:16.703Z,25.09
2018-08-11T06:03:48.121Z,25.09
2018-08-11T06:06:18.350Z,25.42
2018-08-11T06:08:49.003Z,25.69
2018-08-11T06:11:19.599Z,25.85
2018-08-11T06:13:51.105Z,25.95
2018-08-11T06:16:21.958Z,26.13
2018-08-11T06:18:52.724Z,26.30
2018-08-11T06:21:23.361Z,26.39
2018-08-11T06:23:53.450Z,26.61
2018-08-11T06:26:24.083Z,26.72
2018-08-11T06:28:54.783Z,26.92
2018-08-11T06:31:25.684Z,27.18
2018-08-11T06:33:56.297Z,27.29
2018-08-11T06:36:26.847Z,27.42
2018-08-11T06:38:57.782Z,27.25
2018-08-11T06:41:28.763Z,27.30
2018-08-11T06:43:59.331Z,27.64
2018-08-11T06:46:30.091Z,27.70
2018-08-11T06:49:00.895Z,27.90
2018-08-11T06:51:31.691Z,27.61
2018-08-11T06:54:02.276Z,27.56
2018-08-11T06:56:33.091Z,27.64
2018-08-11T06:59:04.918Z,27.70
2018-08-11T07:01:35.670Z,27.71
2018-08-11T07:04:06.867Z,27.65
2018-08-11T07:06:37.714Z,28.01
2018-08-11T07:09:10.623Z,28.13
2018-08-11T07:11:41.079Z,28.16
2018-08-11T07:14:11.940Z,28.31
2018-08-11T07:16:42.347Z,28.25
2018-08-11T07:19:12.277Z,28.16
2018-08-11T07:21:43.397Z,28.13
2018-08-11T07:24:14.074Z,27.96
2018-08-11T07:26:44.796Z,28.26
2018-08-11T07:29:15.391Z,28.47
2018-08-11T07:31:45.914Z,28.52
2018-08-11T07:34:16.676Z,28.75
2018-08-11T07:36:47.592Z,28.84
2018-08-11T07:39:18.854Z,28.51
2018-08-11T07:41:48.848Z,28.81
2018-08-11T07:44:19.619Z,29.06
2018-08-11T07:46:50.363Z,29.84
2018-08-11T07:49:21.194Z,29.94
2018-08-11T07:51:52.083Z,29.15
2018-08-11T07:54:22.819Z,28.80
2018-08-11T07:56:53.969Z,29.02
2018-08-11T07:59:23.861Z,29.47
2018-08-11T08:01:54.912Z,29.64
2018-08-11T08:04:25.739Z,29.55
2018-08-11T08:06:56.107Z,29.55
2018-08-11T08:09:26.428Z,29.50
2018-08-11T08:11:56.332Z,29.67
2018-08-11T08:14:26.278Z,29.99
2018-08-11T08:16:56.100Z,30.11
2018-08-11T08:19:25.976Z,30.61
2018-08-11T08:21:55.703Z,31.03
2018-08-11T08:24:25.514Z,31.06
2018-08-11T08:26:55.523Z,30.78
2018-08-11T08:29:25.240Z,31.08
2018-08-11T08:31:55.142Z,31.17
2018-08-11T08:34:24.977Z,31.47
2018-08-11T08:36:54.797Z,31.74
2018-08-11T08:39:24.604Z,31.76
2018-08-11T08:41:54.402Z,32.19
2018-08-11T08:44:24.359Z,31.59
2018-08-11T08:46:54.274Z,31.27
2018-08-11T08:49:24.180Z,30.54
2018-08-11T08:51:53.939Z,30.23
2018-08-11T08:54:23.771Z,30.70
2018-08-11T08:56:53.634Z,31.37
2018-08-11T08:59:23.364Z,32.15
2018-08-11T09:01:53.211Z,32.13
2018-08-11T09:04:23.102Z,32.06
2018-08-11T09:06:52.993Z,31.62
2018-08-11T09:09:22.780Z,31.47
2018-08-11T09:11:52.767Z,31.75
2018-08-11T09:14:22.569Z,31.98
2018-08-11T09:16:52.390Z,32.75
2018-08-11T09:19:22.238Z,32.25
2018-08-11T09:21:51.983Z,31.66
2018-08-11T09:24:22.083Z,31.89
2018-08-11T09:26:54.451Z,31.51
2018-08-11T09:29:24.483Z,32.13
2018-08-11T09:31:54.407Z,31.85
2018-08-11T09:34:24.321Z,31.39
2018-08-11T09:36:54.118Z,31.69
2018-08-11T09:39:23.864Z,32.23
2018-08-11T09:41:53.682Z,32.02
2018-08-11T09:44:23.691Z,31.80
2018-08-11T09:46:53.538Z,31.96
2018-08-11T09:49:23.309Z,32.15
2018-08-11T09:51:53.141Z,32.50
2018-08-11T09:54:22.942Z,32.63
2018-08-11T09:56:52.749Z,32.27
2018-08-11T09:59:22.619Z,32.13
2018-08-11T10:02:23.241Z,31.63
2018-08-11T10:04:53.130Z,31.64
2018-08-11T10:07:22.903Z,32.63
2018-08-11T10:09:52.672Z,32.38
2018-08-11T10:12:22.508Z,32.86
2018-08-11T10:14:52.566Z,32.11
2018-08-11T10:17:22.311Z,32.52
2018-08-11T10:19:52.078Z,32.72
2018-08-11T10:22:21.833Z,33.44
2018-08-11T10:24:51.615Z,33.00
2018-08-11T10:27:21.358Z,32.05
2018-08-11T10:29:51.085Z,32.04
2018-08-11T10:32:20.923Z,32.71
2018-08-11T10:34:50.731Z,32.80
2018-08-11T10:37:20.485Z,32.91
2018-08-11T10:39:50.269Z,33.29
2018-08-11T10:42:20.041Z,33.56
2018-08-11T10:44:49.834Z,33.41
2018-08-11T10:47:19.582Z,34.32
2018-08-11T10:49:49.386Z,34.15
2018-08-11T10:52:19.878Z,33.81
2018-08-11T10:54:49.739Z,33.31
2018-08-11T10:57:19.533Z,33.69
2018-08-11T10:59:49.303Z,33.81
2018-08-11T11:02:19.002Z,33.59
2018-08-11T11:04:48.790Z,33.85
2018-08-11T11:07:18.626Z,34.20
2018-08-11T11:09:48.592Z,34.99
2018-08-11T11:12:18.397Z,34.64
2018-08-11T11:14:48.157Z,34.83
2018-08-11T11:17:17.961Z,34.48
2018-08-11T11:19:47.740Z,34.08
2018-08-11T11:22:17.534Z,34.81
2018-08-11T11:24:47.265Z,35.05
2018-08-11T11:27:17.052Z,35.68
2018-08-11T11:29:46.937Z,35.71
2018-08-11T11:32:16.838Z,35.94
2018-08-11T11:34:46.716Z,35.58
2018-08-11T11:37:16.567Z,35.81
2018-08-11T11:39:46.360Z,36.17
2018-08-11T11:42:16.122Z,36.80
2018-08-11T11:44:46.332Z,37.18
2018-08-11T11:47:16.075Z,36.43
2018-08-11T11:49:45.795Z,36.38
2018-08-11T11:52:15.561Z,37.62
2018-08-11T11:54:45.396Z,37.23
2018-08-11T11:57:15.150Z,35.98
2018-08-11T11:59:44.974Z,35.54
2018-08-11T12:02:14.795Z,36.09
2018-08-11T12:04:44.710Z,36.65
2018-08-11T12:07:14.454Z,35.78
2018-08-11T12:09:44.272Z,34.92
2018-08-11T12:12:13.980Z,33.97
2018-08-11T12:14:43.814Z,34.31
2018-08-11T12:17:13.553Z,35.31
2018-08-11T12:19:43.281Z,35.54
2018-08-11T12:22:13.030Z,35.52
2018-08-11T12:24:42.847Z,35.50
2018-08-11T12:27:12.633Z,35.47
2018-08-11T12:29:42.413Z,35.37
2018-08-11T12:32:12.195Z,34.98
